createdAt,value
2018-11-13T00:00:24.558Z,9.00
2018-11-13T00:02:53.938Z,9.07
2018-11-13T00:05:23.446Z,8.83
2018-11-13T00:07:52.818Z,7.83
2018-11-13T00:10:21.803Z,8.70
2018-11-13T00:12:51.249Z,7.53
2018-11-13T00:15:20.448Z,8.10
2018-11-13T00:17:49.327Z,7.70
2018-11-13T00:20:19.041Z,9.23
2018-11-13T00:22:48.252Z,8.30
2018-11-13T00:25:18.671Z,8.23
2018-11-13T00:27:47.535Z,8.20
2018-11-13T00:30:21.110Z,8.70
2018-11-13T00:32:50.806Z,7.87
2018-11-13T00:35:20.510Z,7.73
2018-11-13T00:37:49.863Z,8.00
2018-11-13T00:40:19.252Z,8.37
2018-11-13T00:42:48.581Z,7.40
2018-11-13T00:45:17.515Z,7.90
2018-11-13T00:47:46.816Z,8.80
2018-11-13T00:50:16.985Z,7.67
2018-11-13T00:52:46.488Z,7.80
2018-11-13T00:55:15.988Z,9.10
2018-11-13T00:57:45.079Z,8.80
2018-11-13T01:00:16.773Z,7.70
2018-11-13T01:02:45.982Z,7.60
2018-11-13T01:05:16.603Z,8.83
2018-11-13T01:07:46.827Z,8.07
2018-11-13T01:10:16.519Z,9.10
2018-11-13T01:12:46.688Z,8.27
2018-11-13T01:15:16.650Z,8.70
2018-11-13T01:17:46.800Z,8.67
2018-11-13T01:20:17.464Z,8.57
2018-11-13T01:22:47.277Z,8.00
2018-11-13T01:25:17.648Z,7.50
2018-11-13T01:27:47.575Z,8.57
2018-11-13T01:30:17.635Z,7.60
2018-11-13T01:32:47.175Z,8.27
2018-11-13T01:35:17.494Z,9.10
2018-11-13T01:37:47.217Z,7.90
2018-11-13T01:40:19.017Z,9.70
2018-11-13T01:42:48.245Z,8.27
2018-11-13T01:45:19.108Z,8.03
2018-11-13T01:47:48.874Z,9.33
2018-11-13T01:50:18.942Z,8.47
2018-11-13T01:52:48.551Z,8.50
2018-11-13T01:55:18.393Z,8.30
2018-11-13T01:57:47.908Z,6.60
2018-11-13T02:00:23.441Z,6.67
2018-11-13T02:02:55.258Z,9.00
2018-11-13T02:05:26.006Z,6.97
2018-11-13T02:07:56.124Z,8.20
2018-11-13T02:10:25.661Z,8.50
2018-11-13T02:12:54.909Z,7.23
2018-11-13T02:15:24.661Z,8.30
2018-11-13T02:17:54.225Z,8.20
2018-11-13T02:20:23.762Z,7.40
2018-11-13T02:22:53.514Z,8.50
2018-11-13T02:25:23.339Z,7.87
2018-11-13T02:27:53.166Z,8.63
2018-11-13T02:30:23.789Z,7.60
2018-11-13T02:32:53.990Z,7.90
2018-11-13T02:35:23.284Z,8.57
2018-11-13T02:37:53.048Z,9.10
2018-11-13T02:40:22.557Z,8.20
2018-11-13T02:42:52.241Z,8.87
2018-11-13T02:45:21.953Z,8.83
2018-11-13T02:47:51.136Z,8.07
2018-11-13T02:50:21.755Z,7.37
2018-11-13T02:52:51.879Z,8.00
2018-11-13T02:55:21.383Z,8.20
2018-11-13T02:57:51.452Z,8.37
2018-11-13T03:00:21.912Z,9.00
2018-11-13T03:02:51.639Z,9.07
2018-11-13T03:05:21.959Z,8.17
2018-11-13T03:07:51.672Z,8.10
2018-11-13T03:10:21.731Z,7.40
2018-11-13T03:12:51.609Z,8.57
2018-11-13T03:15:21.980Z,8.30
2018-11-13T03:17:52.581Z,7.37
2018-11-13T03:20:22.773Z,8.40
2018-11-13T03:22:52.464Z,9.23
2018-11-13T03:25:22.600Z,8.40
2018-11-13T03:27:53.006Z,8.80
2018-11-13T03:30:24.780Z,8.40
2018-11-13T03:32:54.617Z,8.50
2018-11-13T03:35:23.810Z,7.20
2018-11-13T03:37:56.276Z,7.70
2018-11-13T03:40:25.312Z,8.17
2018-11-13T03:42:54.820Z,8.47
2018-11-13T03:45:24.355Z,6.90
2018-11-13T03:47:54.072Z,9.17
2018-11-13T03:50:24.156Z,8.47
2018-11-13T03:52:53.977Z,8.83
2018-11-13T03:55:23.778Z,8.90
2018-11-13T03:57:54.026Z,7.17
2018-11-13T04:00:24.397Z,10.03
2018-11-13T04:02:54.142Z,9.13
2018-11-13T04:05:23.852Z,7.27
2018-11-13T04:07:54.602Z,8.03
2018-11-13T04:10:24.840Z,8.50
2018-11-13T04:12:54.533Z,8.57
2018-11-13T04:15:25.432Z,9.03
2018-11-13T04:17:55.327Z,9.00
2018-11-13T04:20:25.100Z,9.60
2018-11-13T04:22:54.943Z,8.63
2018-11-13T04:25:24.814Z,9.23
2018-11-13T04:27:54.555Z,9.67
2018-11-13T04:30:24.462Z,8.53
2018-11-13T04:32:54.451Z,9.10
2018-11-13T04:35:24.156Z,9.10
2018-11-13T04:37:53.787Z,8.20
2018-11-13T04:40:23.566Z,8.20
2018-11-13T04:42:54.181Z,9.97
2018-11-13T04:45:25.243Z,9.00
2018-11-13T04:47:55.163Z,10.40
2018-11-13T04:50:24.849Z,8.70
2018-11-13T04:52:54.602Z,8.73
2018-11-13T04:55:24.075Z,9.27
2018-11-13T04:57:53.310Z,10.40
2018-11-13T05:00:23.779Z,9.60
2018-11-13T05:02:53.491Z,9.50
2018-11-13T05:05:23.359Z,8.70
2018-11-13T05:07:54.311Z,9.17
2018-11-13T05:10:24.967Z,8.57
2018-11-13T05:12:54.127Z,9.60
2018-11-13T05:15:23.819Z,8.97
2018-11-13T05:17:53.621Z,7.77
2018-11-13T05:20:23.463Z,8.87
2018-11-13T05:22:53.149Z,9.07
2018-11-13T05:25:22.542Z,10.87
2018-11-13T05:27:51.991Z,10.03
2018-11-13T05:30:22.767Z,9.70
2018-11-13T05:32:52.067Z,10.00
2018-11-13T05:35:22.354Z,9.00
2018-11-13T05:37:52.140Z,10.00
2018-11-13T05:40:23.027Z,10.13
2018-11-13T05:42:53.015Z,10.83
2018-11-13T05:45:25.637Z,10.60
2018-11-13T05:47:54.853Z,9.40
2018-11-13T05:50:25.516Z,10.33
2018-11-13T05:52:55.245Z,10.77
2018-11-13T05:55:25.115Z,10.30
2018-11-13T05:57:55.397Z,10.37
2018-11-13T06:00:32.400Z,11.10
2018-11-13T06:03:06.311Z,10.20
2018-11-13T06:05:37.145Z,10.03
2018-11-13T06:08:06.936Z,11.40
2018-11-13T06:10:38.079Z,8.33
2018-11-13T06:13:08.090Z,9.30
2018-11-13T06:15:38.072Z,9.97
2018-11-13T06:18:09.170Z,10.40
2018-11-13T06:20:39.151Z,8.70
2018-11-13T06:23:08.402Z,9.90
2018-11-13T06:25:38.616Z,11.13
2018-11-13T06:28:08.350Z,11.60
2018-11-13T06:30:37.952Z,12.67
2018-11-13T06:33:07.598Z,12.13
2018-11-13T06:35:37.154Z,9.97
2018-11-13T06:38:06.873Z,12.57
2018-11-13T06:40:36.636Z,9.30
2018-11-13T06:43:06.038Z,9.87
2018-11-13T06:45:35.825Z,10.00
2018-11-13T06:48:05.875Z,11.70
2018-11-13T06:50:35.563Z,12.43
2018-11-13T06:53:05.217Z,8.90
2018-11-13T06:55:36.634Z,12.20
2018-11-13T06:58:06.522Z,12.13
2018-11-13T07:00:36.257Z,13.20
2018-11-13T07:03:05.977Z,13.17
2018-11-13T07:05:35.342Z,12.53
2018-11-13T07:08:05.285Z,13.63
2018-11-13T07:10:36.012Z,11.40
2018-11-13T07:13:06.266Z,13.87
2018-11-13T07:15:35.947Z,13.07
2018-11-13T07:18:06.200Z,12.00
2018-11-13T07:20:36.182Z,13.73
2018-11-13T07:23:05.853Z,12.33
2018-11-13T07:25:36.003Z,12.70
2018-11-13T07:28:05.752Z,12.37
2018-11-13T07:30:34.958Z,11.87
2018-11-13T07:33:04.391Z,13.43
2018-11-13T07:35:34.192Z,9.20
2018-11-13T07:38:03.832Z,13.10
2018-11-13T07:40:34.435Z,9.57
2018-11-13T07:43:04.304Z,12.90
2018-11-13T07:45:33.574Z,13.20
2018-11-13T07:48:03.799Z,12.67
2018-11-13T07:50:33.584Z,13.13
2018-11-13T07:53:05.478Z,13.80
2018-11-13T07:55:35.206Z,13.97
2018-11-13T07:58:04.820Z,10.13
2018-11-13T08:00:34.566Z,14.60
2018-11-13T08:03:16.077Z,13.30
2018-11-13T08:05:45.728Z,12.13
2018-11-13T08:08:16.006Z,11.40
2018-11-13T08:10:45.751Z,12.20
2018-11-13T08:13:15.762Z,14.00
2018-11-13T08:15:45.356Z,10.53
2018-11-13T08:18:15.124Z,14.00
2018-11-13T08:20:44.713Z,14.50
2018-11-13T08:23:14.231Z,12.77
2018-11-13T08:25:43.634Z,12.10
2018-11-13T08:28:13.644Z,12.63
2018-11-13T08:30:43.531Z,9.30
2018-11-13T08:33:13.622Z,9.47
2018-11-13T08:35:43.723Z,13.10
2018-11-13T08:38:12.815Z,10.20
2018-11-13T08:40:42.643Z,10.07
2018-11-13T08:43:13.295Z,11.80
2018-11-13T08:45:43.160Z,10.70
2018-11-13T08:48:13.026Z,12.90
2018-11-13T08:50:43.036Z,11.17
2018-11-13T08:53:13.505Z,10.60
2018-11-13T08:55:43.069Z,12.70
2018-11-13T08:58:13.312Z,12.27
2018-11-13T09:00:42.452Z,12.20
2018-11-13T09:03:12.479Z,13.37
2018-11-13T09:09:01.451Z,11.33
2018-11-13T09:11:31.166Z,12.07
2018-11-13T09:14:00.846Z,11.40
2018-11-13T09:16:31.314Z,11.60
2018-11-13T09:19:02.921Z,13.17
2018-11-13T09:21:33.552Z,8.17
2018-11-13T09:24:03.557Z,9.50
2018-11-13T09:26:34.399Z,8.17
2018-11-13T09:29:04.259Z,8.33
2018-11-13T09:31:34.075Z,9.27
2018-11-13T09:34:03.963Z,9.90
2018-11-13T09:36:37.022Z,10.27
2018-11-13T09:39:16.729Z,9.07
2018-11-13T09:41:47.694Z,8.43
2018-11-13T09:44:17.161Z,10.10
2018-11-13T09:46:46.176Z,9.90
2018-11-13T09:49:15.123Z,7.43
2018-11-13T09:51:44.686Z,9.10
2018-11-13T09:54:14.101Z,8.30
2018-11-13T09:56:43.825Z,10.50
2018-11-13T09:59:12.719Z,10.57
2018-11-13T10:01:41.937Z,11.07
2018-11-13T10:04:11.054Z,10.97
2018-11-13T10:06:39.559Z,7.73
2018-11-13T10:09:11.949Z,10.77
2018-11-13T10:11:42.024Z,11.53
2018-11-13T10:14:11.849Z,11.17
2018-11-13T10:16:41.695Z,11.43
2018-11-13T10:19:11.302Z,11.07
2018-11-13T10:21:40.257Z,9.83
2018-11-13T10:24:09.900Z,8.20
2018-11-13T10:26:38.831Z,8.23
2018-11-13T10:29:07.783Z,8.47
2018-11-13T10:31:36.903Z,9.53
2018-11-13T10:34:06.087Z,7.70
2018-11-13T10:36:35.479Z,7.00
2018-11-13T10:39:07.018Z,7.60
2018-11-13T10:41:37.256Z,9.97
2018-11-13T10:44:06.260Z,7.00
2018-11-13T10:46:35.427Z,8.40
2018-11-13T10:49:05.032Z,8.70
2018-11-13T10:51:34.199Z,9.50
2018-11-13T10:54:03.362Z,8.93
2018-11-13T10:56:32.329Z,7.80
2018-11-13T10:59:01.182Z,6.77
2018-11-13T11:01:35.966Z,5.97
2018-11-13T11:04:10.385Z,8.00
2018-11-13T11:06:39.573Z,6.03
2018-11-13T11:09:09.438Z,8.27
2018-11-13T11:11:39.524Z,10.40
2018-11-13T11:14:08.603Z,6.60
2018-11-13T11:16:37.590Z,9.10
2018-11-13T11:19:06.916Z,7.70
2018-11-13T11:21:36.000Z,9.20
2018-11-13T11:24:07.820Z,9.87
2018-11-13T11:26:36.680Z,8.60
2018-11-13T11:29:06.136Z,8.40
2018-11-13T11:31:35.196Z,6.77
2018-11-13T11:34:04.851Z,7.03
2018-11-13T11:36:34.848Z,9.57
2018-11-13T11:39:04.941Z,7.83
2018-11-13T11:41:34.333Z,8.20
2018-11-13T11:44:03.804Z,8.97
2018-11-13T11:46:33.398Z,6.60
2018-11-13T11:49:02.999Z,7.40
2018-11-13T11:51:33.057Z,7.27
2018-11-13T11:54:02.086Z,10.27
2018-11-13T11:56:31.462Z,10.90
2018-11-13T11:59:00.709Z,7.60
2018-11-13T12:01:29.966Z,9.00
2018-11-13T12:03:58.982Z,7.77
2018-11-13T12:06:28.303Z,11.60
2018-11-13T12:08:57.491Z,12.30
2018-11-13T12:11:26.664Z,11.97
2018-11-13T12:13:55.691Z,8.27
2018-11-13T12:16:24.707Z,9.10
2018-11-13T12:18:53.664Z,11.10
2018-11-13T12:21:22.670Z,7.60
2018-11-13T12:23:52.387Z,7.70
2018-11-13T12:26:21.759Z,12.20
2018-11-13T12:28:50.997Z,8.97
2018-11-13T12:31:20.170Z,7.67
2018-11-13T12:33:50.319Z,9.23
2018-11-13T12:36:19.291Z,11.07
2018-11-13T12:38:48.498Z,11.97
2018-11-13T12:41:17.403Z,9.63
2018-11-13T12:43:46.539Z,8.27
2018-11-13T12:46:15.774Z,12.03
2018-11-13T12:48:45.521Z,9.20
2018-11-13T12:51:20.762Z,8.40
2018-11-13T12:53:49.967Z,9.20
2018-11-13T12:56:18.899Z,7.37
2018-11-13T12:58:48.126Z,7.90
2018-11-13T13:01:17.318Z,11.07
2018-11-13T13:03:46.273Z,11.70
2018-11-13T13:06:15.805Z,7.60
2018-11-13T13:08:44.935Z,9.30
2018-11-13T13:11:14.105Z,7.43
2018-11-13T13:13:44.166Z,10.80
2018-11-13T13:16:15.355Z,8.10
2018-11-13T13:18:44.328Z,9.60
2018-11-13T13:21:13.439Z,9.20
2018-11-13T13:23:42.558Z,11.10
2018-11-13T13:26:12.624Z,7.27
2018-11-13T13:28:41.729Z,6.80
2018-11-13T13:31:11.012Z,8.00
2018-11-13T13:33:40.181Z,9.07
2018-11-13T13:36:09.339Z,7.83
2018-11-13T13:38:39.127Z,10.07
2018-11-13T13:41:08.060Z,8.17
2018-11-13T13:43:37.152Z,6.97
2018-11-13T13:46:06.758Z,7.00
2018-11-13T13:48:35.835Z,7.40
2018-11-13T13:51:05.249Z,7.07
2018-11-13T13:53:34.900Z,6.47
2018-11-13T13:56:04.167Z,6.27
2018-11-13T13:58:33.195Z,7.30
2018-11-13T14:01:02.226Z,7.13
2018-11-13T14:03:31.979Z,9.17
2018-11-13T14:06:01.128Z,7.13
2018-11-13T14:08:30.613Z,5.90
2018-11-13T14:10:59.963Z,6.30
2018-11-13T14:13:29.774Z,6.33
2018-11-13T14:15:59.188Z,5.93
2018-11-13T14:18:28.795Z,7.40
2018-11-13T14:20:57.973Z,8.50
2018-11-13T14:23:27.311Z,5.60
2018-11-13T14:25:56.438Z,5.17
2018-11-13T14:28:25.549Z,5.00
2018-11-13T14:30:54.979Z,5.63
2018-11-13T14:33:24.410Z,7.03
2018-11-13T14:35:53.803Z,7.87
2018-11-13T14:38:22.907Z,8.40
2018-11-13T14:40:52.007Z,6.80
2018-11-13T14:43:21.921Z,5.90
2018-11-13T14:45:51.105Z,5.07
2018-11-13T14:48:20.651Z,5.93
2018-11-13T14:50:49.788Z,5.37
2018-11-13T14:53:19.670Z,5.50
2018-11-13T14:55:48.593Z,4.23
2018-11-13T14:58:17.806Z,5.73
2018-11-13T15:00:46.945Z,4.47
2018-11-13T15:03:17.018Z,6.30
2018-11-13T15:05:46.312Z,6.00
2018-11-13T15:08:15.678Z,4.10
2018-11-13T15:10:50.162Z,5.70
2018-11-13T15:13:20.145Z,6.40
2018-11-13T15:15:49.098Z,6.00
2018-11-13T15:18:19.153Z,6.43
2018-11-13T15:20:49.181Z,5.70
2018-11-13T15:23:18.119Z,5.90
2018-11-13T15:25:47.274Z,4.50
2018-11-13T15:28:16.484Z,5.30
2018-11-13T15:30:47.016Z,4.70
2018-11-13T15:33:19.706Z,4.40
2018-11-13T15:35:49.627Z,4.67
2018-11-13T15:38:18.755Z,4.67
2018-11-13T15:40:47.887Z,4.23
2018-11-13T15:43:16.764Z,4.40
2018-11-13T15:45:46.170Z,4.50
2018-11-13T15:48:16.009Z,4.50
2018-11-13T15:50:45.035Z,3.73
2018-11-13T15:53:14.029Z,4.13
2018-11-13T15:55:43.157Z,3.30
2018-11-13T15:58:12.184Z,3.17
2018-11-13T16:00:42.191Z,3.10
2018-11-13T16:03:17.260Z,3.03
2018-11-13T16:05:49.742Z,3.27
2018-11-13T16:08:18.671Z,2.90
2018-11-13T16:10:47.694Z,2.80
2018-11-13T16:13:16.647Z,2.73
2018-11-13T16:15:46.148Z,2.80
2018-11-13T16:18:19.912Z,3.20
2018-11-13T16:20:49.074Z,2.63
2018-11-13T16:23:18.276Z,2.60
2018-11-13T16:25:47.560Z,2.43
2018-11-13T16:28:16.531Z,2.40
2018-11-13T16:30:45.566Z,2.70
2018-11-13T16:33:15.472Z,2.27
2018-11-13T16:35:44.995Z,2.80
2018-11-13T16:38:19.563Z,2.97
2018-11-13T16:40:48.307Z,2.40
2018-11-13T16:43:17.247Z,2.30
2018-11-13T16:45:46.408Z,2.70
2018-11-13T16:48:15.903Z,2.20
2018-11-13T16:50:44.991Z,2.20
2018-11-13T16:53:13.921Z,2.50
2018-11-13T16:55:48.456Z,2.37
2018-11-13T16:58:17.923Z,2.30
2018-11-13T17:00:46.931Z,2.30
2018-11-13T17:03:16.300Z,2.10
2018-11-13T17:05:45.273Z,1.90
2018-11-13T17:08:14.749Z,1.70
2018-11-13T17:10:44.791Z,2.07
2018-11-13T17:13:14.176Z,2.10
2018-11-13T17:15:43.350Z,2.27
2018-11-13T17:18:13.727Z,2.10
2018-11-13T17:20:41.506Z,1.90
2018-11-13T17:23:10.802Z,2.03
2018-11-13T17:25:41.941Z,1.60
2018-11-13T17:28:12.112Z,2.00
2018-11-13T17:30:41.296Z,1.90
2018-11-13T17:33:10.643Z,1.93
2018-11-13T17:35:39.568Z,1.70
2018-11-13T17:38:09.797Z,1.87
2018-11-13T17:40:42.053Z,2.00
2018-11-13T17:43:11.697Z,1.40
2018-11-13T17:45:41.859Z,1.70
2018-11-13T17:48:12.405Z,1.67
2018-11-13T17:50:42.549Z,1.60
2018-11-13T17:53:12.109Z,1.57
2018-11-13T17:55:41.374Z,1.40
2018-11-13T17:58:12.058Z,1.70
2018-11-13T18:00:55.454Z,1.50
2018-11-13T18:03:26.232Z,1.30
2018-11-13T18:05:59.580Z,1.20
2018-11-13T18:08:44.638Z,1.57
2018-11-13T18:11:15.871Z,1.50
2018-11-13T18:13:45.187Z,1.23
2018-11-13T18:16:43.942Z,1.50
2018-11-13T18:19:15.872Z,1.53
2018-11-13T18:21:45.205Z,1.60
2018-11-13T18:24:21.336Z,1.50
2018-11-13T18:27:32.770Z,1.40
2018-11-13T18:30:02.785Z,1.40
2018-11-13T18:32:43.129Z,1.27
2018-11-13T18:35:24.409Z,1.37
2018-11-13T18:37:56.486Z,1.20
2018-11-13T18:40:38.355Z,1.40
2018-11-13T18:43:08.183Z,1.27
2018-11-13T18:45:39.303Z,1.20
2018-11-13T18:48:08.262Z,1.63
2018-11-13T18:50:39.801Z,1.40
2018-11-13T18:53:08.704Z,1.50
2018-11-13T18:55:37.721Z,1.40
2018-11-13T18:58:06.973Z,1.30
2018-11-13T19:00:37.459Z,1.40
2018-11-13T19:03:07.567Z,1.40
2018-11-13T19:05:36.563Z,1.27
2018-11-13T19:08:06.184Z,1.70
2018-11-13T19:10:38.073Z,2.10
2018-11-13T19:13:09.139Z,2.00
2018-11-13T19:15:40.019Z,2.20
2018-11-13T19:18:09.650Z,1.93
2018-11-13T19:20:39.138Z,1.83
2018-11-13T19:23:08.124Z,1.60
2018-11-13T19:25:37.630Z,1.70
2018-11-13T19:28:06.870Z,2.53
2018-11-13T19:30:36.017Z,2.00
2018-11-13T19:33:05.186Z,2.30
2018-11-13T19:35:34.957Z,2.53
2018-11-13T19:38:03.762Z,2.27
2018-11-13T19:40:33.846Z,2.13
2018-11-13T19:43:14.389Z,1.97
2018-11-13T19:45:45.212Z,2.27
2018-11-13T19:48:14.159Z,2.07
2018-11-13T19:50:43.628Z,1.90
2018-11-13T19:53:12.554Z,2.30
2018-11-13T19:55:41.551Z,2.50
2018-11-13T19:58:10.576Z,4.17
2018-11-13T20:00:40.078Z,2.60
2018-11-13T20:03:10.532Z,2.77
2018-11-13T20:05:39.472Z,2.10
2018-11-13T20:08:09.794Z,3.53
2018-11-13T20:10:40.186Z,2.20
2018-11-13T20:13:10.113Z,2.07
2018-11-13T20:15:39.901Z,2.40
2018-11-13T20:18:08.851Z,2.60
2018-11-13T20:20:38.319Z,2.90
2018-11-13T20:23:08.100Z,3.30
2018-11-13T20:25:37.536Z,3.73
2018-11-13T20:28:06.862Z,3.13
2018-11-13T20:30:37.697Z,2.73
2018-11-13T20:33:07.143Z,2.73
2018-11-13T20:35:36.107Z,3.13
2018-11-13T20:38:05.543Z,3.00
2018-11-13T20:40:35.555Z,3.50
2018-11-13T20:43:06.274Z,3.17
2018-11-13T20:45:35.409Z,4.40
2018-11-13T20:48:04.692Z,3.10
2018-11-13T20:50:34.285Z,2.50
2018-11-13T20:53:04.005Z,3.90
2018-11-13T20:55:33.146Z,3.67
2018-11-13T20:58:02.117Z,2.53
2018-11-13T21:00:32.889Z,2.70
2018-11-13T21:03:02.268Z,2.90
2018-11-13T21:05:31.219Z,3.73
2018-11-13T21:08:01.551Z,3.23
2018-11-13T21:10:34.580Z,2.60
2018-11-13T21:13:05.791Z,4.30
2018-11-13T21:15:35.907Z,4.50
2018-11-13T21:18:05.862Z,5.30
2018-11-13T21:20:41.813Z,5.17
2018-11-13T21:23:11.838Z,4.47
2018-11-13T21:25:40.969Z,5.87
2018-11-13T21:28:12.411Z,5.40
2018-11-13T21:30:42.701Z,5.70
2018-11-13T21:33:13.488Z,6.20
2018-11-13T21:35:44.582Z,5.67
2018-11-13T21:38:14.625Z,6.07
2018-11-13T21:40:45.188Z,6.20
2018-11-13T21:43:14.312Z,4.80
2018-11-13T21:45:44.119Z,5.40
2018-11-13T21:48:14.300Z,4.63
2018-11-13T21:50:44.387Z,3.97
2018-11-13T21:53:14.422Z,4.07
2018-11-13T21:55:44.405Z,3.73
2018-11-13T21:58:13.869Z,3.50
2018-11-13T22:00:43.280Z,4.13
2018-11-13T22:03:13.380Z,4.07
2018-11-13T22:05:42.402Z,4.00
2018-11-13T22:08:11.763Z,3.97
2018-11-13T22:10:41.231Z,4.50
2018-11-13T22:13:10.391Z,4.40
2018-11-13T22:15:39.833Z,3.57
2018-11-13T22:18:10.027Z,3.70
2018-11-13T22:20:45.976Z,4.30
2018-11-13T22:23:15.845Z,4.13
2018-11-13T22:25:45.604Z,3.67
2018-11-13T22:28:14.920Z,2.93
2018-11-13T22:30:44.127Z,3.20
2018-11-13T22:33:13.325Z,4.03
2018-11-13T22:35:42.643Z,4.23
2018-11-13T22:38:12.525Z,3.70
2018-11-13T22:40:41.726Z,4.67
2018-11-13T22:43:12.414Z,4.10
2018-11-13T22:45:41.824Z,3.93
2018-11-13T22:48:10.948Z,3.63
2018-11-13T22:50:40.902Z,4.00
2018-11-13T22:53:10.519Z,4.93
2018-11-13T22:55:40.357Z,3.40
2018-11-13T22:58:09.375Z,3.47
2018-11-13T23:00:41.857Z,4.97
2018-11-13T23:03:14.959Z,4.57
2018-11-13T23:05:45.337Z,3.47
2018-11-13T23:08:17.342Z,3.50
2018-11-13T23:10:47.350Z,4.17
2018-11-13T23:13:17.138Z,4.33
2018-11-13T23:15:47.550Z,4.90
2018-11-13T23:18:17.304Z,4.70
2018-11-13T23:20:47.030Z,4.23
2018-11-13T23:23:17.104Z,4.17
2018-11-13T23:25:46.105Z,3.50
2018-11-13T23:28:16.535Z,3.53
2018-11-13T23:30:45.717Z,3.50
2018-11-13T23:33:15.006Z,3.90
2018-11-13T23:35:45.087Z,3.27
2018-11-13T23:38:14.905Z,3.53
2018-11-13T23:40:45.096Z,3.40
2018-11-13T23:43:14.906Z,3.50
2018-11-13T23:45:45.288Z,3.50
2018-11-13T23:48:14.508Z,4.63
2018-11-13T23:50:44.241Z,4.80
2018-11-13T23:53:14.058Z,3.63
2018-11-13T23:55:43.920Z,4.80
2018-11-13T23:58:13.608Z,3.77
